createdAt,value
2023-02-03T00:02:22.947Z,44.22
2023-02-03T00:04:49.799Z,40.78
2023-02-03T00:07:16.644Z,36.35
2023-02-03T00:09:43.437Z,39.85
2023-02-03T00:12:10.464Z,40.33
2023-02-03T00:14:38.047Z,35.65
2023-02-03T00:17:05.687Z,36.85
2023-02-03T00:19:32.894Z,33.95
2023-02-03T00:21:59.599Z,30.75
2023-02-03T00:24:26.354Z,32.08
2023-02-03T00:26:53.358Z,30.67
2023-02-03T00:29:24.760Z,29.63
2023-02-03T00:31:53.543Z,31.23
2023-02-03T00:34:20.747Z,32.60
2023-02-03T00:39:16.676Z,33.20
2023-02-03T00:41:43.531Z,31.23
2023-02-03T00:44:10.610Z,30.67
2023-02-03T00:46:38.116Z,31.08
2023-02-03T00:49:05.439Z,31.52
2023-02-03T00:51:33.474Z,27.88
2023-02-03T00:54:00.348Z,25.48
2023-02-03T00:56:27.122Z,25.35
2023-02-03T00:58:53.927Z,25.35
2023-02-03T01:01:20.766Z,25.27
2023-02-03T01:03:47.580Z,23.48
2023-02-03T01:06:20.128Z,22.60
2023-02-03T01:08:47.663Z,22.30
2023-02-03T01:11:20.288Z,22.73
2023-02-03T01:13:47.499Z,23.65
2023-02-03T01:18:43.171Z,21.88
2023-02-03T01:23:44.617Z,25.00
2023-02-03T01:26:17.918Z,23.58
2023-02-03T01:28:50.399Z,24.48
2023-02-03T01:31:20.977Z,23.38
2023-02-03T01:33:48.700Z,24.08
2023-02-03T01:36:17.503Z,24.17
2023-02-03T01:38:45.216Z,23.42
2023-02-03T01:41:14.972Z,24.83
2023-02-03T01:43:46.024Z,24.05
2023-02-03T01:46:27.544Z,25.20
2023-02-03T01:48:58.667Z,25.48
2023-02-03T01:51:25.384Z,24.23
2023-02-03T01:53:54.030Z,25.60
2023-02-03T01:56:22.090Z,25.70
2023-02-03T01:58:49.950Z,26.35
2023-02-03T02:01:19.437Z,26.38
2023-02-03T02:03:52.951Z,26.20
2023-02-03T02:06:19.880Z,25.65
2023-02-03T02:08:48.916Z,27.48
2023-02-03T02:11:16.335Z,25.80
2023-02-03T02:13:44.620Z,27.30
2023-02-03T02:16:25.725Z,27.42
2023-02-03T02:19:19.462Z,28.13
2023-02-03T02:21:55.097Z,29.23
2023-02-03T02:24:46.628Z,29.60
2023-02-03T02:27:16.182Z,27.73
2023-02-03T02:30:20.356Z,30.75
2023-02-03T02:33:03.204Z,30.05
2023-02-03T02:35:43.101Z,33.08
2023-02-03T02:38:23.546Z,31.48
2023-02-03T02:41:15.627Z,30.45
2023-02-03T02:43:43.512Z,31.25
2023-02-03T02:46:15.863Z,34.78
2023-02-03T02:48:52.368Z,32.88
2023-02-03T02:51:21.587Z,32.10
2023-02-03T02:53:58.288Z,33.95
2023-02-03T02:56:27.273Z,32.72
2023-02-03T02:58:56.310Z,35.28
2023-02-03T03:01:23.198Z,36.30
2023-02-03T03:03:50.219Z,35.17
2023-02-03T03:06:46.021Z,35.13
2023-02-03T03:09:21.472Z,33.42
2023-02-03T03:11:56.776Z,33.88
2023-02-03T03:14:26.882Z,32.45
2023-02-03T03:16:59.770Z,32.70
2023-02-03T03:19:32.979Z,32.63
2023-02-03T03:22:04.178Z,31.60
2023-02-03T03:24:56.004Z,32.50
2023-02-03T03:27:25.334Z,31.75
2023-02-03T03:30:06.357Z,32.83
2023-02-03T03:32:33.869Z,31.85
2023-02-03T03:35:03.001Z,31.95
2023-02-03T03:37:41.939Z,33.50
2023-02-03T03:40:33.475Z,33.67
2023-02-03T03:43:17.512Z,33.22
2023-02-03T03:46:00.558Z,35.17
2023-02-03T03:48:37.034Z,34.13
2023-02-03T03:51:09.260Z,33.67
2023-02-03T03:53:38.873Z,33.97
2023-02-03T03:56:08.433Z,33.92
2023-02-03T03:58:40.383Z,33.38
2023-02-03T04:01:08.539Z,34.58
2023-02-03T04:03:43.158Z,34.95
2023-02-03T04:06:10.019Z,36.05
2023-02-03T04:08:36.859Z,35.50
2023-02-03T04:11:03.746Z,36.00
2023-02-03T04:13:30.442Z,35.42
2023-02-03T04:15:57.270Z,33.70
2023-02-03T04:18:24.264Z,33.78
2023-02-03T04:20:51.158Z,33.72
2023-02-03T04:23:17.921Z,34.15
2023-02-03T04:25:44.730Z,33.00
2023-02-03T04:28:11.590Z,34.10
2023-02-03T04:30:38.433Z,33.17
2023-02-03T04:33:05.191Z,34.47
2023-02-03T04:35:31.923Z,33.50
2023-02-03T04:37:58.618Z,34.47
2023-02-03T04:40:25.702Z,33.22
2023-02-03T04:42:52.514Z,32.85
2023-02-03T04:45:19.294Z,32.58
2023-02-03T04:47:53.821Z,33.88
2023-02-03T04:50:21.054Z,34.88
2023-02-03T04:52:47.869Z,33.28
2023-02-03T04:55:14.765Z,31.67
2023-02-03T04:57:41.534Z,34.05
2023-02-03T05:00:08.942Z,32.72
2023-02-03T05:02:35.804Z,34.40
2023-02-03T05:05:02.595Z,34.25
2023-02-03T05:07:29.335Z,34.72
2023-02-03T05:09:56.085Z,34.35
2023-02-03T05:12:22.877Z,34.55
2023-02-03T05:14:49.575Z,33.08
2023-02-03T05:17:16.307Z,34.50
2023-02-03T05:19:43.150Z,34.42
2023-02-03T05:22:09.885Z,33.80
2023-02-03T05:24:36.639Z,36.42
2023-02-03T05:27:03.442Z,39.08
2023-02-03T05:29:30.199Z,36.10
2023-02-03T05:31:56.957Z,38.40
2023-02-03T05:34:23.792Z,35.70
2023-02-03T05:36:50.557Z,36.65
2023-02-03T05:39:17.330Z,38.40
2023-02-03T05:41:53.010Z,38.67
2023-02-03T05:44:24.945Z,36.80
2023-02-03T05:46:53.676Z,35.55
2023-02-03T05:49:20.692Z,36.90
2023-02-03T05:51:47.524Z,36.97
2023-02-03T05:54:14.503Z,38.80
2023-02-03T05:56:41.385Z,38.13
2023-02-03T05:59:08.812Z,37.38
2023-02-03T06:01:36.248Z,36.72
2023-02-03T06:04:03.814Z,38.67
2023-02-03T06:06:34.785Z,37.63
2023-02-03T06:09:06.017Z,36.88
2023-02-03T06:11:33.689Z,37.00
2023-02-03T06:14:00.758Z,35.60
2023-02-03T06:16:28.332Z,38.20
2023-02-03T06:18:59.502Z,35.85
2023-02-03T06:21:26.596Z,37.17
2023-02-03T06:23:53.538Z,37.40
2023-02-03T06:26:20.367Z,36.75
2023-02-03T06:28:47.281Z,37.60
2023-02-03T06:31:14.034Z,39.17
2023-02-03T06:33:40.863Z,39.67
2023-02-03T06:36:07.830Z,40.20
2023-02-03T06:38:34.719Z,39.15
2023-02-03T06:41:01.531Z,40.47
2023-02-03T06:43:28.443Z,41.50
2023-02-03T06:45:55.210Z,42.20
2023-02-03T06:48:22.082Z,43.55
2023-02-03T06:50:48.991Z,74.90
2023-02-03T06:53:15.867Z,81.60
2023-02-03T06:55:42.716Z,49.92
2023-02-03T06:58:09.434Z,43.97
2023-02-03T07:00:36.280Z,43.63
2023-02-03T07:03:03.159Z,44.13
2023-02-03T07:05:30.374Z,45.33
2023-02-03T07:07:57.470Z,44.80
2023-02-03T07:10:24.339Z,46.35
2023-02-03T07:12:52.017Z,45.55
2023-02-03T07:15:19.082Z,45.08
2023-02-03T07:17:54.281Z,46.55
2023-02-03T07:20:22.419Z,48.58
2023-02-03T07:22:57.405Z,46.20
2023-02-03T07:25:25.111Z,47.25
2023-02-03T07:27:51.926Z,47.33
2023-02-03T07:30:18.940Z,47.92
2023-02-03T07:32:50.441Z,47.88
2023-02-03T07:35:17.395Z,48.35
2023-02-03T07:37:44.383Z,47.25
2023-02-03T07:40:12.480Z,47.65
2023-02-03T07:42:43.109Z,46.30
2023-02-03T07:45:11.785Z,61.80
2023-02-03T07:47:38.966Z,67.07
2023-02-03T07:50:05.950Z,46.30
2023-02-03T07:52:32.758Z,46.00
2023-02-03T07:54:59.511Z,46.70
2023-02-03T07:57:26.734Z,49.92
2023-02-03T07:59:53.552Z,48.58
2023-02-03T08:02:20.460Z,49.10
2023-02-03T08:04:47.212Z,49.55
2023-02-03T08:07:13.964Z,48.20
2023-02-03T08:09:40.681Z,49.05
2023-02-03T08:12:07.536Z,50.88
2023-02-03T08:14:34.289Z,51.33
2023-02-03T08:17:00.990Z,49.25
2023-02-03T08:19:27.751Z,52.25
2023-02-03T08:21:54.512Z,51.65
2023-02-03T08:24:21.403Z,52.35
2023-02-03T08:26:48.174Z,51.35
2023-02-03T08:29:14.949Z,51.67
2023-02-03T08:31:44.825Z,53.22
2023-02-03T08:34:11.597Z,53.20
2023-02-03T08:36:40.022Z,54.13
2023-02-03T08:39:07.718Z,53.05
2023-02-03T08:41:34.602Z,54.20
2023-02-03T08:44:01.968Z,53.22
2023-02-03T08:46:29.030Z,54.10
2023-02-03T08:48:57.172Z,52.55
2023-02-03T08:51:24.706Z,54.42
2023-02-03T08:53:52.029Z,53.97
2023-02-03T08:56:18.883Z,52.08
2023-02-03T08:58:45.801Z,54.67
2023-02-03T09:01:16.088Z,54.50
2023-02-03T09:03:43.064Z,53.83
2023-02-03T09:06:13.040Z,54.83
2023-02-03T09:08:39.835Z,54.63
2023-02-03T09:11:11.053Z,56.55
2023-02-03T09:13:38.909Z,54.97
2023-02-03T09:16:08.920Z,55.90
2023-02-03T09:18:36.012Z,56.30
2023-02-03T09:21:04.581Z,54.40
2023-02-03T09:23:32.120Z,54.78
2023-02-03T09:28:33.540Z,53.20
2023-02-03T09:31:02.008Z,54.78
2023-02-03T09:33:29.234Z,61.38
2023-02-03T09:38:24.271Z,56.45
2023-02-03T09:41:10.487Z,57.58
2023-02-03T09:43:47.196Z,59.28
2023-02-03T09:46:21.715Z,57.83
2023-02-03T09:48:54.431Z,57.10
2023-02-03T09:51:29.650Z,59.17
2023-02-03T09:54:19.317Z,56.13
2023-02-03T09:56:52.519Z,57.33
2023-02-03T09:59:19.669Z,59.05
2023-02-03T10:04:37.970Z,57.88
2023-02-03T10:07:25.508Z,60.67
2023-02-03T10:10:17.060Z,60.20
2023-02-03T10:12:59.124Z,57.55
2023-02-03T10:15:44.701Z,57.28
2023-02-03T10:18:18.915Z,59.97
2023-02-03T10:20:52.911Z,61.22
2023-02-03T10:23:41.162Z,59.45
2023-02-03T10:26:14.701Z,62.83
2023-02-03T10:28:48.610Z,59.10
2023-02-03T10:31:20.340Z,58.83
2023-02-03T10:33:47.968Z,60.83
2023-02-03T10:36:22.315Z,58.03
2023-02-03T10:39:11.969Z,61.22
2023-02-03T10:41:38.824Z,59.65
2023-02-03T10:44:08.799Z,58.80
2023-02-03T10:46:39.627Z,58.95
2023-02-03T10:49:06.467Z,60.35
2023-02-03T10:51:48.227Z,58.95
2023-02-03T10:54:29.682Z,58.55
2023-02-03T10:57:04.379Z,61.00
2023-02-03T10:59:36.876Z,59.92
2023-02-03T11:02:21.171Z,63.70
2023-02-03T11:04:48.079Z,61.65
2023-02-03T11:07:26.820Z,63.80
2023-02-03T11:09:53.812Z,61.80
2023-02-03T11:12:20.581Z,61.03
2023-02-03T11:14:52.874Z,60.47
2023-02-03T11:17:23.091Z,60.80
2023-02-03T11:19:52.610Z,58.83
2023-02-03T11:22:32.863Z,58.25
2023-02-03T11:25:02.425Z,57.72
2023-02-03T11:27:33.768Z,56.42
2023-02-03T11:30:18.558Z,55.50
2023-02-03T11:32:47.961Z,55.67
2023-02-03T11:35:19.035Z,57.40
2023-02-03T11:37:49.214Z,57.00
2023-02-03T11:40:15.920Z,54.55
2023-02-03T11:42:44.735Z,57.17
2023-02-03T11:45:18.241Z,53.92
2023-02-03T11:48:08.383Z,55.25
2023-02-03T11:50:45.253Z,57.22
2023-02-03T11:53:47.880Z,56.70
2023-02-03T11:56:32.104Z,53.28
2023-02-03T11:59:01.866Z,54.63
2023-02-03T12:01:47.103Z,53.80
2023-02-03T12:04:19.791Z,55.50
2023-02-03T12:07:12.180Z,54.00
2023-02-03T12:10:08.151Z,55.30
2023-02-03T12:12:49.902Z,57.75
2023-02-03T12:15:22.295Z,57.00
2023-02-03T12:18:27.397Z,58.65
2023-02-03T12:21:17.979Z,55.38
2023-02-03T12:24:04.214Z,56.65
2023-02-03T12:26:41.621Z,57.13
2023-02-03T12:29:17.264Z,58.67
2023-02-03T12:32:39.057Z,54.97
2023-02-03T12:35:26.414Z,56.17
2023-02-03T12:38:22.533Z,55.22
2023-02-03T12:41:01.086Z,57.28
2023-02-03T12:43:40.802Z,57.58
2023-02-03T12:46:22.482Z,57.42
2023-02-03T12:49:04.665Z,55.45
2023-02-03T12:51:49.829Z,57.90
2023-02-03T12:54:16.530Z,55.38
2023-02-03T12:56:46.218Z,58.42
2023-02-03T12:59:19.854Z,55.42
2023-02-03T13:01:52.287Z,56.80
2023-02-03T13:04:36.677Z,55.90
2023-02-03T13:07:33.546Z,54.83
2023-02-03T13:10:03.695Z,57.08
2023-02-03T13:12:52.179Z,56.85
2023-02-03T13:15:21.624Z,54.97
2023-02-03T13:18:45.904Z,57.95
2023-02-03T13:21:13.072Z,55.67
2023-02-03T13:23:51.515Z,56.83
2023-02-03T13:26:42.789Z,56.33
2023-02-03T13:29:30.630Z,56.95
2023-02-03T13:32:06.421Z,57.92
2023-02-03T13:34:58.683Z,52.92
2023-02-03T13:37:34.338Z,57.40
2023-02-03T13:40:24.097Z,55.25
2023-02-03T13:43:06.016Z,57.00
2023-02-03T13:45:41.056Z,54.97
2023-02-03T13:48:10.893Z,55.30
2023-02-03T13:50:38.793Z,53.97
2023-02-03T13:53:15.127Z,53.88
2023-02-03T13:56:00.381Z,54.42
2023-02-03T13:58:31.115Z,55.20
2023-02-03T14:01:02.273Z,54.67
2023-02-03T14:03:29.111Z,54.33
2023-02-03T14:05:57.837Z,55.38
2023-02-03T14:08:30.089Z,53.58
2023-02-03T14:11:34.578Z,54.00
2023-02-03T14:14:27.368Z,54.78
2023-02-03T14:16:57.696Z,55.10
2023-02-03T14:19:30.629Z,53.88
2023-02-03T14:22:06.791Z,52.80
2023-02-03T14:24:35.765Z,55.85
2023-02-03T14:27:05.273Z,55.03
2023-02-03T14:29:37.344Z,58.15
2023-02-03T14:32:09.524Z,70.60
2023-02-03T14:34:49.093Z,55.47
2023-02-03T14:37:18.625Z,58.50
2023-02-03T14:39:48.703Z,73.28
2023-02-03T14:42:23.525Z,53.05
2023-02-03T14:45:09.094Z,103.35
2023-02-03T14:47:51.137Z,91.28
2023-02-03T14:50:37.779Z,53.75
2023-02-03T14:54:02.085Z,52.08
2023-02-03T14:57:18.408Z,50.83
2023-02-03T14:59:51.049Z,51.20
2023-02-03T15:02:25.935Z,50.38
2023-02-03T15:05:12.477Z,51.08
2023-02-03T15:07:45.268Z,51.33
2023-02-03T15:10:26.874Z,50.20
2023-02-03T15:12:56.185Z,51.97
2023-02-03T15:15:24.857Z,49.78
2023-02-03T15:17:57.222Z,51.78
2023-02-03T15:20:41.354Z,53.17
2023-02-03T15:23:23.269Z,54.50
2023-02-03T15:25:58.265Z,56.03
2023-02-03T15:28:27.007Z,57.58
2023-02-03T15:31:10.104Z,55.50
2023-02-03T15:33:39.103Z,58.38
2023-02-03T15:36:13.036Z,56.80
2023-02-03T15:38:45.207Z,57.45
2023-02-03T15:41:22.298Z,56.55
2023-02-03T15:43:56.733Z,56.95
2023-02-03T15:46:36.265Z,57.92
2023-02-03T15:49:13.199Z,56.10
2023-02-03T15:51:44.269Z,56.67
2023-02-03T15:54:30.201Z,58.28
2023-02-03T15:57:01.881Z,55.05
2023-02-03T15:59:36.005Z,58.42
2023-02-03T16:02:14.648Z,61.25
2023-02-03T16:04:41.686Z,56.47
2023-02-03T16:09:42.723Z,60.88
2023-02-03T16:12:31.595Z,63.47
2023-02-03T16:15:01.581Z,57.20
2023-02-03T16:17:33.704Z,59.25
2023-02-03T16:20:12.516Z,57.45
2023-02-03T16:22:43.986Z,59.08
2023-02-03T16:25:25.682Z,58.58
2023-02-03T16:28:20.051Z,56.88
2023-02-03T16:31:20.199Z,59.92
2023-02-03T16:34:08.264Z,57.03
2023-02-03T16:36:59.446Z,58.90
2023-02-03T16:39:45.491Z,55.42
2023-02-03T16:45:20.326Z,57.70
2023-02-03T16:48:05.807Z,59.80
2023-02-03T16:50:52.526Z,57.90
2023-02-03T16:53:24.219Z,60.17
2023-02-03T16:55:53.567Z,59.17
2023-02-03T16:58:20.448Z,56.53
2023-02-03T17:00:49.769Z,60.17
2023-02-03T17:03:21.250Z,59.08
2023-02-03T17:05:49.529Z,60.58
2023-02-03T17:08:18.512Z,59.78
2023-02-03T17:10:46.146Z,61.97
2023-02-03T17:13:12.987Z,61.00
2023-02-03T17:15:44.822Z,59.70
2023-02-03T17:18:12.566Z,57.03
2023-02-03T17:20:40.112Z,57.78
2023-02-03T17:23:06.893Z,57.67
2023-02-03T17:25:37.746Z,56.53
2023-02-03T17:28:06.320Z,57.17
2023-02-03T17:30:35.172Z,56.05
2023-02-03T17:33:03.395Z,58.13
2023-02-03T17:35:30.631Z,56.45
2023-02-03T17:37:57.798Z,56.90
2023-02-03T17:54:13.634Z,67.07
2023-02-03T17:56:40.556Z,58.10
2023-02-03T17:59:07.416Z,56.63
2023-02-03T18:01:34.251Z,58.33
2023-02-03T18:04:05.820Z,57.72
2023-02-03T18:06:35.151Z,59.55
2023-02-03T18:09:04.020Z,56.47
2023-02-03T18:11:34.473Z,57.78
2023-02-03T18:14:01.331Z,61.08
2023-02-03T18:16:32.518Z,56.25
2023-02-03T18:19:02.215Z,59.17
2023-02-03T18:21:32.191Z,59.97
2023-02-03T18:24:01.831Z,62.92
2023-02-03T18:26:34.314Z,62.70
2023-02-03T18:29:01.372Z,60.17
2023-02-03T18:31:28.483Z,63.75
2023-02-03T18:33:55.437Z,60.03
2023-02-03T18:36:22.294Z,61.58
2023-02-03T18:38:49.183Z,61.42
2023-02-03T18:41:21.770Z,64.28
2023-02-03T18:43:49.320Z,61.95
2023-02-03T18:46:22.061Z,62.25
2023-02-03T18:48:48.834Z,62.63
2023-02-03T18:51:17.573Z,62.13
2023-02-03T18:53:46.662Z,61.03
2023-02-03T18:56:23.219Z,62.17
2023-02-03T18:58:50.493Z,62.78
2023-02-03T19:01:22.953Z,63.63
2023-02-03T19:03:50.268Z,60.08
2023-02-03T19:06:17.559Z,63.13
2023-02-03T19:08:44.775Z,62.30
2023-02-03T19:11:13.329Z,60.95
2023-02-03T19:13:41.098Z,62.53
2023-02-03T19:16:09.049Z,61.33
2023-02-03T19:18:36.295Z,61.65
2023-02-03T19:21:03.332Z,64.25
2023-02-03T19:23:30.575Z,58.40
2023-02-03T19:25:57.429Z,62.35
2023-02-03T19:28:30.515Z,62.03
2023-02-03T19:31:09.593Z,61.47
2023-02-03T19:33:38.037Z,58.85
2023-02-03T19:36:06.144Z,58.13
2023-02-03T19:38:33.370Z,60.08
2023-02-03T19:41:03.539Z,60.97
2023-02-03T19:43:31.171Z,56.85
2023-02-03T19:45:58.397Z,58.70
2023-02-03T19:48:25.530Z,56.22
2023-02-03T19:50:52.307Z,57.08
2023-02-03T19:53:19.289Z,56.65
2023-02-03T19:55:46.538Z,55.42
2023-02-03T19:58:13.929Z,55.58
2023-02-03T20:00:41.926Z,60.47
2023-02-03T20:03:09.150Z,60.88
2023-02-03T20:05:36.442Z,57.25
2023-02-03T20:08:03.862Z,60.22
2023-02-03T20:10:32.530Z,61.95
2023-02-03T20:12:59.731Z,59.70
2023-02-03T20:15:27.157Z,59.45
2023-02-03T20:17:54.435Z,59.72
2023-02-03T20:20:21.694Z,59.20
2023-02-03T20:22:48.992Z,59.35
2023-02-03T20:25:15.936Z,57.95
2023-02-03T20:27:42.727Z,57.63
2023-02-03T20:30:10.282Z,57.80
2023-02-03T20:32:37.535Z,60.10
2023-02-03T20:35:06.209Z,58.08
2023-02-03T20:37:36.034Z,81.97
2023-02-03T20:40:06.246Z,59.80
2023-02-03T20:42:34.276Z,59.78
2023-02-03T20:45:01.420Z,59.88
2023-02-03T20:47:28.201Z,65.25
2023-02-03T20:49:55.795Z,61.00
2023-02-03T20:52:22.702Z,60.05
2023-02-03T20:54:49.588Z,62.17
2023-02-03T20:57:19.261Z,59.35
2023-02-03T20:59:46.908Z,59.92
2023-02-03T21:02:31.064Z,59.63
2023-02-03T21:04:58.593Z,59.38
2023-02-03T21:07:32.994Z,57.60
2023-02-03T21:10:00.127Z,57.15
2023-02-03T21:14:55.212Z,55.78
2023-02-03T21:17:26.316Z,56.05
2023-02-03T21:19:54.632Z,56.60
2023-02-03T21:22:27.532Z,56.55
2023-02-03T21:24:59.944Z,54.63
2023-02-03T21:27:32.031Z,55.60
2023-02-03T21:30:01.158Z,59.15
2023-02-03T21:32:39.490Z,56.47
2023-02-03T21:35:24.949Z,58.58
2023-02-03T21:38:01.816Z,56.75
2023-02-03T21:40:31.510Z,56.95
2023-02-03T21:42:59.228Z,57.17
2023-02-03T21:45:34.232Z,56.00
2023-02-03T21:48:03.019Z,57.20
2023-02-03T21:50:30.898Z,55.78
2023-02-03T21:53:12.521Z,55.97
2023-02-03T21:55:41.312Z,53.78
2023-02-03T21:58:30.255Z,55.85
2023-02-03T22:00:59.753Z,54.17
2023-02-03T22:03:48.492Z,55.47
2023-02-03T22:06:34.661Z,55.90
2023-02-03T22:09:01.423Z,56.45
2023-02-03T22:11:29.976Z,57.17
2023-02-03T22:13:57.588Z,55.88
2023-02-03T22:16:24.644Z,56.40
2023-02-03T22:18:52.174Z,56.75
2023-02-03T22:21:19.595Z,57.58
2023-02-03T22:23:46.477Z,59.03
2023-02-03T22:26:14.936Z,58.85
2023-02-03T22:28:42.281Z,56.67
2023-02-03T22:31:11.416Z,56.08
2023-02-03T22:33:38.952Z,56.60
2023-02-03T22:36:06.744Z,56.92
2023-02-03T22:38:34.907Z,56.45
2023-02-03T22:41:02.254Z,57.63
2023-02-03T22:43:31.150Z,56.42
2023-02-03T22:45:58.557Z,57.60
2023-02-03T22:48:25.520Z,57.55
2023-02-03T22:50:52.278Z,59.47
2023-02-03T22:53:19.040Z,57.58
2023-02-03T22:55:45.819Z,55.53
2023-02-03T22:58:12.672Z,56.75
2023-02-03T23:00:39.663Z,57.78
2023-02-03T23:03:06.697Z,54.30
2023-02-03T23:05:33.740Z,55.33
2023-02-03T23:08:00.964Z,56.88
2023-02-03T23:13:00.826Z,54.13
2023-02-03T23:15:28.356Z,52.33
2023-02-03T23:17:55.326Z,54.92
2023-02-03T23:20:22.465Z,55.55
2023-02-03T23:22:49.256Z,53.20
2023-02-03T23:25:16.142Z,52.75
2023-02-03T23:27:42.981Z,52.70
2023-02-03T23:30:10.493Z,56.67
2023-02-03T23:32:37.329Z,54.30
2023-02-03T23:35:22.969Z,60.55
2023-02-03T23:37:49.713Z,59.60
2023-02-03T23:40:16.559Z,58.90
2023-02-03T23:42:43.347Z,57.70
2023-02-03T23:45:12.201Z,60.72
2023-02-03T23:47:40.790Z,57.35
2023-02-03T23:50:09.891Z,58.35
2023-02-03T23:52:37.540Z,61.03
2023-02-03T23:55:10.529Z,57.75
2023-02-03T23:57:37.574Z,60.78
